Cancún International Airport
MMUN : now visible

Airfield :











YOU CAN JOIN US ON...

 
LOGIN :

Register | Disclaimer

   EN    FR    IT 

 









Legend :    VFR   Marginal VFR   IFR   Intensive IFR   Very Intensive IFR
Visi :
Ceiling :
>= 8 km
>= 3000ft
5 to 8 km
1000 to 3000 ft
1500m to 5 km
500 to 1000 ft
800 to 1500m
200 to 500 ft
< 800m
< 200 ft
Symbols :   Thunderstorms  Fog  Heavy snow  Heavy precipitations  Wind > 20 kt






- Airport Elevation : 20 ft
- IATA code : CUN


MMUN - Cancún International

CURRENT METAR :
  • 140551Z 34004KT 7SM TS BKN015CB BKN080 OVC250 24/24 A2995 RMK SLP143 57006 902 8/977

EXPIRED METARs :
  • 140448Z 31005KT 7SM TS SCT015CB BKN080 BKN250 24/24 A2996 RMK 8/978
  • 140346Z 34003KT 7SM TS BKN015CB BKN080 OVC250 24/24 A2998 RMK 8/977 TSB40 OCNL DROPS BINOVC

TAF TAF MMUN
Valid from the 14 at 06:00 until the 15 at 12:00 UTC


140539Z 1406/1512 31005KT P6SM SCT015CB BKN080 BKN250 TX26/1419Z TN23/1412Z
BECMG 1407/1409 5SM -RA
TEMPO 1418/1422 3SM TSRA BKN015CB
FM150800 09010KT 6SM -RA BKN015 OVC080



MET'MAP, your aeronautical weather chart ! - Copyright ORBIFLY December 2007 - Disclaimer

ORBIFLY MET'MAP TEAM :

Programming & Development : Alexandra Zaïnal
Concept & Development : Baudouin d'Aumeries
Co-Development & Prog : Marc-Olivier Méhu
Technical & hardware support : Manuel Goepfert

Contact : metmap@orbifly.com




SOURCES & CREDITS :

   NOAA       Earth
Advisory